sensor_id;sensor_type;location;lat;lon;timestamp;temperature;humidity
18880;DHT22;9572;52.378;13.404;2023-04-15T00:01:03;8.60;99.90
18880;DHT22;9572;52.378;13.404;2023-04-15T00:03:30;8.60;99.90
18880;DHT22;9572;52.378;13.404;2023-04-15T00:05:58;8.60;99.90
18880;DHT22;9572;52.378;13.404;2023-04-15T00:08:27;8.60;99.90
18880;DHT22;9572;52.378;13.404;2023-04-15T00:10:54;8.60;99.90
18880;DHT22;9572;52.378;13.404;2023-04-15T00:13:21;8.60;99.90
18880;DHT22;9572;52.378;13.404;2023-04-15T00:15:48;8.60;99.90
18880;DHT22;9572;52.378;13.404;2023-04-15T00:18:15;8.60;99.90
18880;DHT22;9572;52.378;13.404;2023-04-15T00:20:41;8.60;99.90
18880;DHT22;9572;52.378;13.404;2023-04-15T00:23:08;8.60;99.90
18880;DHT22;9572;52.378;13.404;2023-04-15T00:25:36;8.60;99.90
18880;DHT22;9572;52.378;13.404;2023-04-15T00:28:04;8.60;99.90
18880;DHT22;9572;52.378;13.404;2023-04-15T00:30:36;8.70;99.90
18880;DHT22;9572;52.378;13.404;2023-04-15T00:33:07;8.70;99.90
18880;DHT22;9572;52.378;13.404;2023-04-15T00:35:37;8.70;99.90
18880;DHT22;9572;52.378;13.404;2023-04-15T00:38:04;8.70;99.90
18880;DHT22;9572;52.378;13.404;2023-04-15T00:40:32;8.60;99.90
18880;DHT22;9572;52.378;13.404;2023-04-15T00:43:01;8.60;99.90
18880;DHT22;9572;52.378;13.404;2023-04-15T00:45:28;8.60;99.90
18880;DHT22;9572;52.378;13.404;2023-04-15T00:47:56;8.60;99.90
18880;DHT22;9572;52.378;13.404;2023-04-15T00:50:24;8.60;99.90
18880;DHT22;9572;52.378;13.404;2023-04-15T00:52:51;8.60;99.90
18880;DHT22;9572;52.378;13.404;2023-04-15T00:55:17;8.60;99.90
18880;DHT22;9572;52.378;13.404;2023-04-15T00:57:44;8.70;99.90
18880;DHT22;9572;52.378;13.404;2023-04-15T01:00:13;8.70;99.90
18880;DHT22;9572;52.378;13.404;2023-04-15T01:02:41;8.60;99.90
18880;DHT22;9572;52.378;13.404;2023-04-15T01:05:08;8.60;99.90
18880;DHT22;9572;52.378;13.404;2023-04-15T01:07:35;8.70;99.90
18880;DHT22;9572;52.378;13.404;2023-04-15T01:10:02;8.70;99.90
18880;DHT22;9572;52.378;13.404;2023-04-15T01:12:31;8.70;99.90
18880;DHT22;9572;52.378;13.404;2023-04-15T01:14:59;8.60;99.90
18880;DHT22;9572;52.378;13.404;2023-04-15T01:17:27;8.60;99.90
18880;DHT22;9572;52.378;13.404;2023-04-15T01:19:55;8.70;99.90
18880;DHT22;9572;52.378;13.404;2023-04-15T01:22:22;8.70;99.90
18880;DHT22;9572;52.378;13.404;2023-04-15T01:24:57;8.70;99.90
18880;DHT22;9572;52.378;13.404;2023-04-15T01:27:30;8.70;99.90
18880;DHT22;9572;52.378;13.404;2023-04-15T01:29:58;8.70;99.90
18880;DHT22;9572;52.378;13.404;2023-04-15T01:32:25;8.80;99.90
18880;DHT22;9572;52.378;13.404;2023-04-15T01:34:51;8.70;99.90
18880;DHT22;9572;52.378;13.404;2023-04-15T01:37:18;8.70;99.90
18880;DHT22;9572;52.378;13.404;2023-04-15T01:39:45;8.70;99.90
18880;DHT22;9572;52.378;13.404;2023-04-15T01:42:12;8.80;99.90
18880;DHT22;9572;52.378;13.404;2023-04-15T01:44:40;8.80;99.90
18880;DHT22;9572;52.378;13.404;2023-04-15T01:47:07;8.80;99.90
18880;DHT22;9572;52.378;13.404;2023-04-15T01:49:35;8.70;99.90
18880;DHT22;9572;52.378;13.404;2023-04-15T01:52:02;8.70;99.90
18880;DHT22;9572;52.378;13.404;2023-04-15T01:54:28;8.70;99.90
18880;DHT22;9572;52.378;13.404;2023-04-15T01:56:55;8.60;99.90
18880;DHT22;9572;52.378;13.404;2023-04-15T01:59:22;8.60;99.90
18880;DHT22;9572;52.378;13.404;2023-04-15T02:01:51;8.60;99.90
18880;DHT22;9572;52.378;13.404;2023-04-15T02:04:18;8.60;99.90
18880;DHT22;9572;52.378;13.404;2023-04-15T02:06:44;8.70;99.90
18880;DHT22;9572;52.378;13.404;2023-04-15T02:09:11;8.60;99.90
18880;DHT22;9572;52.378;13.404;2023-04-15T02:11:38;8.60;99.90
18880;DHT22;9572;52.378;13.404;2023-04-15T02:14:05;8.60;99.90
18880;DHT22;9572;52.378;13.404;2023-04-15T02:16:32;8.50;99.90
18880;DHT22;9572;52.378;13.404;2023-04-15T02:19:01;8.50;99.90
18880;DHT22;9572;52.378;13.404;2023-04-15T02:21:28;8.60;99.90
18880;DHT22;9572;52.378;13.404;2023-04-15T02:23:55;8.50;99.90
18880;DHT22;9572;52.378;13.404;2023-04-15T02:26:22;8.50;99.90
18880;DHT22;9572;52.378;13.404;2023-04-15T02:28:50;8.50;99.90
18880;DHT22;9572;52.378;13.404;2023-04-15T02:31:17;8.50;99.90
18880;DHT22;9572;52.378;13.404;2023-04-15T02:33:44;8.50;99.90
18880;DHT22;9572;52.378;13.404;2023-04-15T02:36:12;8.50;99.90
18880;DHT22;9572;52.378;13.404;2023-04-15T02:38:39;8.50;99.90
18880;DHT22;9572;52.378;13.404;2023-04-15T02:41:08;8.50;99.90
18880;DHT22;9572;52.378;13.404;2023-04-15T02:55:45;8.50;99.90
18880;DHT22;9572;52.378;13.404;2023-04-15T02:58:25;8.40;99.90
18880;DHT22;9572;52.378;13.404;2023-04-15T03:01:09;8.50;99.90
18880;DHT22;9572;52.378;13.404;2023-04-15T03:24:11;8.60;99.90
18880;DHT22;9572;52.378;13.404;2023-04-15T03:27:29;8.60;99.90
18880;DHT22;9572;52.378;13.404;2023-04-15T03:30:37;8.60;99.90
18880;DHT22;9572;52.378;13.404;2023-04-15T03:33:08;8.60;99.90
18880;DHT22;9572;52.378;13.404;2023-04-15T03:35:49;8.70;99.90
18880;DHT22;9572;52.378;13.404;2023-04-15T03:38:18;8.60;99.90
18880;DHT22;9572;52.378;13.404;2023-04-15T03:40:49;8.70;99.90
18880;DHT22;9572;52.378;13.404;2023-04-15T03:44:07;8.70;99.90
18880;DHT22;9572;52.378;13.404;2023-04-15T03:46:40;8.70;99.90
18880;DHT22;9572;52.378;13.404;2023-04-15T03:49:09;8.70;99.90
18880;DHT22;9572;52.378;13.404;2023-04-15T03:51:36;8.80;99.90
18880;DHT22;9572;52.378;13.404;2023-04-15T03:54:09;8.80;99.90
18880;DHT22;9572;52.378;13.404;2023-04-15T03:56:39;8.80;99.90
18880;DHT22;9572;52.378;13.404;2023-04-15T03:59:06;8.80;99.90
18880;DHT22;9572;52.378;13.404;2023-04-15T04:01:40;8.80;99.90
18880;DHT22;9572;52.378;13.404;2023-04-15T04:04:09;8.80;99.90
18880;DHT22;9572;52.378;13.404;2023-04-15T04:06:36;8.80;99.90
18880;DHT22;9572;52.378;13.404;2023-04-15T04:09:04;8.80;99.90
18880;DHT22;9572;52.378;13.404;2023-04-15T04:11:39;8.70;99.90
18880;DHT22;9572;52.378;13.404;2023-04-15T04:14:08;8.80;99.90
18880;DHT22;9572;52.378;13.404;2023-04-15T04:16:41;8.80;99.90
18880;DHT22;9572;52.378;13.404;2023-04-15T04:19:11;8.80;99.90
18880;DHT22;9572;52.378;13.404;2023-04-15T04:21:39;8.90;99.90
18880;DHT22;9572;52.378;13.404;2023-04-15T04:24:08;8.90;99.90
18880;DHT22;9572;52.378;13.404;2023-04-15T04:26:41;8.90;99.90
18880;DHT22;9572;52.378;13.404;2023-04-15T04:29:08;8.90;99.90
18880;DHT22;9572;52.378;13.404;2023-04-15T04:31:40;8.90;99.90
18880;DHT22;9572;52.378;13.404;2023-04-15T04:34:07;8.90;99.90
18880;DHT22;9572;52.378;13.404;2023-04-15T04:36:39;8.90;99.90
18880;DHT22;9572;52.378;13.404;2023-04-15T04:39:07;8.90;99.90
18880;DHT22;9572;52.378;13.404;2023-04-15T04:41:36;8.80;99.90
18880;DHT22;9572;52.378;13.404;2023-04-15T04:44:05;8.90;99.90
18880;DHT22;9572;52.378;13.404;2023-04-15T04:46:34;8.90;99.90
18880;DHT22;9572;52.378;13.404;2023-04-15T04:49:08;8.90;99.90
18880;DHT22;9572;52.378;13.404;2023-04-15T04:51:40;9.00;99.90
18880;DHT22;9572;52.378;13.404;2023-04-15T04:54:18;9.00;99.90
18880;DHT22;9572;52.378;13.404;2023-04-15T04:56:52;9.00;99.90
18880;DHT22;9572;52.378;13.404;2023-04-15T04:59:24;9.00;99.90
18880;DHT22;9572;52.378;13.404;2023-04-15T05:02:01;9.10;99.90
18880;DHT22;9572;52.378;13.404;2023-04-15T05:04:35;9.00;99.90
18880;DHT22;9572;52.378;13.404;2023-04-15T05:07:08;9.00;99.90
18880;DHT22;9572;52.378;13.404;2023-04-15T05:09:37;9.00;99.90
18880;DHT22;9572;52.378;13.404;2023-04-15T05:12:07;8.90;99.90
18880;DHT22;9572;52.378;13.404;2023-04-15T05:14:39;9.00;99.90
18880;DHT22;9572;52.378;13.404;2023-04-15T05:17:06;9.00;99.90
18880;DHT22;9572;52.378;13.404;2023-04-15T05:19:36;9.00;99.90
18880;DHT22;9572;52.378;13.404;2023-04-15T05:22:03;9.00;99.90
18880;DHT22;9572;52.378;13.404;2023-04-15T05:24:32;9.00;99.90
18880;DHT22;9572;52.378;13.404;2023-04-15T05:27:01;9.20;99.90
18880;DHT22;9572;52.378;13.404;2023-04-15T05:29:28;9.10;99.90
18880;DHT22;9572;52.378;13.404;2023-04-15T05:31:55;9.10;99.90
18880;DHT22;9572;52.378;13.404;2023-04-15T05:34:22;9.20;99.90
18880;DHT22;9572;52.378;13.404;2023-04-15T05:36:50;9.20;99.90
18880;DHT22;9572;52.378;13.404;2023-04-15T05:39:17;9.20;99.90
18880;DHT22;9572;52.378;13.404;2023-04-15T05:41:45;9.30;99.90
18880;DHT22;9572;52.378;13.404;2023-04-15T05:44:12;9.30;99.90
18880;DHT22;9572;52.378;13.404;2023-04-15T05:46:39;9.30;99.90
18880;DHT22;9572;52.378;13.404;2023-04-15T05:49:06;9.40;99.90
18880;DHT22;9572;52.378;13.404;2023-04-15T05:51:33;9.50;99.90
18880;DHT22;9572;52.378;13.404;2023-04-15T05:54:00;9.60;99.90
18880;DHT22;9572;52.378;13.404;2023-04-15T05:56:27;9.60;99.90
18880;DHT22;9572;52.378;13.404;2023-04-15T05:58:55;9.60;99.90
18880;DHT22;9572;52.378;13.404;2023-04-15T06:01:22;9.70;99.90
18880;DHT22;9572;52.378;13.404;2023-04-15T06:03:49;9.60;99.90
18880;DHT22;9572;52.378;13.404;2023-04-15T06:06:16;9.60;99.90
18880;DHT22;9572;52.378;13.404;2023-04-15T06:08:43;9.60;99.90
18880;DHT22;9572;52.378;13.404;2023-04-15T06:11:10;9.60;99.90
18880;DHT22;9572;52.378;13.404;2023-04-15T06:13:37;9.60;99.90
18880;DHT22;9572;52.378;13.404;2023-04-15T06:16:06;9.60;99.90
18880;DHT22;9572;52.378;13.404;2023-04-15T06:18:33;9.70;99.90
18880;DHT22;9572;52.378;13.404;2023-04-15T06:21:00;9.80;99.90
18880;DHT22;9572;52.378;13.404;2023-04-15T06:23:27;9.80;99.90
18880;DHT22;9572;52.378;13.404;2023-04-15T06:25:54;9.80;99.90
18880;DHT22;9572;52.378;13.404;2023-04-15T06:28:21;9.90;99.90
18880;DHT22;9572;52.378;13.404;2023-04-15T06:30:48;9.90;99.90
18880;DHT22;9572;52.378;13.404;2023-04-15T06:33:16;9.90;99.90
18880;DHT22;9572;52.378;13.404;2023-04-15T06:35:43;10.00;99.90
18880;DHT22;9572;52.378;13.404;2023-04-15T06:38:10;10.10;99.90
18880;DHT22;9572;52.378;13.404;2023-04-15T06:40:37;10.10;99.90
18880;DHT22;9572;52.378;13.404;2023-04-15T06:43:04;10.10;99.90
18880;DHT22;9572;52.378;13.404;2023-04-15T06:45:31;10.20;99.90
18880;DHT22;9572;52.378;13.404;2023-04-15T06:47:58;10.20;99.90
18880;DHT22;9572;52.378;13.404;2023-04-15T06:50:26;10.30;99.90
18880;DHT22;9572;52.378;13.404;2023-04-15T06:52:54;10.30;99.90
18880;DHT22;9572;52.378;13.404;2023-04-15T06:55:21;10.40;99.90
18880;DHT22;9572;52.378;13.404;2023-04-15T06:57:48;10.40;99.90
18880;DHT22;9572;52.378;13.404;2023-04-15T07:00:16;10.40;99.90
18880;DHT22;9572;52.378;13.404;2023-04-15T07:02:43;10.40;99.90
18880;DHT22;9572;52.378;13.404;2023-04-15T07:05:11;10.40;99.90
18880;DHT22;9572;52.378;13.404;2023-04-15T07:07:39;10.50;99.90
18880;DHT22;9572;52.378;13.404;2023-04-15T07:10:07;10.60;99.90
18880;DHT22;9572;52.378;13.404;2023-04-15T07:12:34;10.60;99.90
18880;DHT22;9572;52.378;13.404;2023-04-15T07:15:01;10.60;99.90
18880;DHT22;9572;52.378;13.404;2023-04-15T07:17:28;10.60;99.90
18880;DHT22;9572;52.378;13.404;2023-04-15T07:19:55;10.50;99.90
18880;DHT22;9572;52.378;13.404;2023-04-15T07:22:22;10.50;99.90
18880;DHT22;9572;52.378;13.404;2023-04-15T07:24:50;10.40;99.90
18880;DHT22;9572;52.378;13.404;2023-04-15T07:27:17;10.40;99.90
18880;DHT22;9572;52.378;13.404;2023-04-15T07:29:44;10.30;99.90
18880;DHT22;9572;52.378;13.404;2023-04-15T07:32:11;10.30;99.90
18880;DHT22;9572;52.378;13.404;2023-04-15T07:34:38;10.30;99.90
18880;DHT22;9572;52.378;13.404;2023-04-15T07:37:06;10.20;99.90
18880;DHT22;9572;52.378;13.404;2023-04-15T07:39:33;10.20;99.90
18880;DHT22;9572;52.378;13.404;2023-04-15T07:42:01;10.20;99.90
18880;DHT22;9572;52.378;13.404;2023-04-15T07:44:28;10.20;99.90
18880;DHT22;9572;52.378;13.404;2023-04-15T07:46:55;10.20;99.90
18880;DHT22;9572;52.378;13.404;2023-04-15T07:49:22;10.20;99.90
18880;DHT22;9572;52.378;13.404;2023-04-15T07:51:49;10.20;99.90
18880;DHT22;9572;52.378;13.404;2023-04-15T07:54:16;10.20;99.90
18880;DHT22;9572;52.378;13.404;2023-04-15T07:56:43;10.20;99.90
18880;DHT22;9572;52.378;13.404;2023-04-15T07:59:11;10.20;99.90
18880;DHT22;9572;52.378;13.404;2023-04-15T08:01:39;10.20;99.90
18880;DHT22;9572;52.378;13.404;2023-04-15T08:04:07;10.20;99.90
18880;DHT22;9572;52.378;13.404;2023-04-15T08:06:34;10.20;99.90
18880;DHT22;9572;52.378;13.404;2023-04-15T08:09:01;10.20;99.90
18880;DHT22;9572;52.378;13.404;2023-04-15T08:11:27;10.10;99.90
18880;DHT22;9572;52.378;13.404;2023-04-15T08:13:55;10.10;99.90
18880;DHT22;9572;52.378;13.404;2023-04-15T08:16:25;10.10;99.90
18880;DHT22;9572;52.378;13.404;2023-04-15T08:18:55;10.10;99.90
18880;DHT22;9572;52.378;13.404;2023-04-15T08:21:22;10.10;99.90
18880;DHT22;9572;52.378;13.404;2023-04-15T08:23:50;10.10;99.90
18880;DHT22;9572;52.378;13.404;2023-04-15T08:26:18;10.00;99.90
18880;DHT22;9572;52.378;13.404;2023-04-15T08:28:46;10.00;99.90
18880;DHT22;9572;52.378;13.404;2023-04-15T08:31:14;10.00;99.90
18880;DHT22;9572;52.378;13.404;2023-04-15T08:33:42;10.10;99.90
18880;DHT22;9572;52.378;13.404;2023-04-15T08:36:09;10.10;99.90
18880;DHT22;9572;52.378;13.404;2023-04-15T08:38:36;10.00;99.90
18880;DHT22;9572;52.378;13.404;2023-04-15T08:41:08;10.00;99.90
18880;DHT22;9572;52.378;13.404;2023-04-15T08:43:41;10.00;99.90
18880;DHT22;9572;52.378;13.404;2023-04-15T08:46:10;10.10;99.90
18880;DHT22;9572;52.378;13.404;2023-04-15T08:48:37;10.20;99.90
18880;DHT22;9572;52.378;13.404;2023-04-15T08:51:07;10.20;99.90
18880;DHT22;9572;52.378;13.404;2023-04-15T08:53:34;10.10;99.90
18880;DHT22;9572;52.378;13.404;2023-04-15T08:56:04;10.20;99.90
18880;DHT22;9572;52.378;13.404;2023-04-15T08:58:34;10.20;99.90
18880;DHT22;9572;52.378;13.404;2023-04-15T09:01:01;10.10;99.90
18880;DHT22;9572;52.378;13.404;2023-04-15T09:03:28;10.20;99.90
18880;DHT22;9572;52.378;13.404;2023-04-15T09:05:56;10.20;99.90
18880;DHT22;9572;52.378;13.404;2023-04-15T09:08:24;10.30;99.90
18880;DHT22;9572;52.378;13.404;2023-04-15T09:10:52;10.30;99.90
18880;DHT22;9572;52.378;13.404;2023-04-15T09:13:19;10.30;99.90
18880;DHT22;9572;52.378;13.404;2023-04-15T09:15:46;10.30;99.90
18880;DHT22;9572;52.378;13.404;2023-04-15T09:18:26;10.30;99.90
18880;DHT22;9572;52.378;13.404;2023-04-15T09:20:54;10.40;99.90
18880;DHT22;9572;52.378;13.404;2023-04-15T09:23:23;10.40;99.90
18880;DHT22;9572;52.378;13.404;2023-04-15T09:25:50;10.40;99.90
18880;DHT22;9572;52.378;13.404;2023-04-15T09:28:23;10.40;99.90
18880;DHT22;9572;52.378;13.404;2023-04-15T09:30:54;10.40;99.90
18880;DHT22;9572;52.378;13.404;2023-04-15T09:33:22;10.40;99.90
18880;DHT22;9572;52.378;13.404;2023-04-15T09:36:00;10.30;99.90
18880;DHT22;9572;52.378;13.404;2023-04-15T09:38:28;10.20;99.90
18880;DHT22;9572;52.378;13.404;2023-04-15T09:40:55;10.30;99.90
18880;DHT22;9572;52.378;13.404;2023-04-15T09:43:25;10.20;99.90
18880;DHT22;9572;52.378;13.404;2023-04-15T09:46:02;10.20;99.90
18880;DHT22;9572;52.378;13.404;2023-04-15T09:48:29;10.30;99.90
18880;DHT22;9572;52.378;13.404;2023-04-15T09:50:57;10.30;99.90
18880;DHT22;9572;52.378;13.404;2023-04-15T09:53:25;10.30;99.90
18880;DHT22;9572;52.378;13.404;2023-04-15T09:55:54;10.30;99.90
18880;DHT22;9572;52.378;13.404;2023-04-15T09:58:23;10.30;99.90
18880;DHT22;9572;52.378;13.404;2023-04-15T10:00:51;10.20;99.90
18880;DHT22;9572;52.378;13.404;2023-04-15T10:03:20;10.20;99.90
18880;DHT22;9572;52.378;13.404;2023-04-15T10:05:51;10.20;99.90
18880;DHT22;9572;52.378;13.404;2023-04-15T10:08:22;10.20;99.90
18880;DHT22;9572;52.378;13.404;2023-04-15T10:10:55;10.20;99.90
18880;DHT22;9572;52.378;13.404;2023-04-15T10:13:25;10.30;99.90
18880;DHT22;9572;52.378;13.404;2023-04-15T10:15:57;10.20;99.90
18880;DHT22;9572;52.378;13.404;2023-04-15T10:18:33;10.30;99.90
18880;DHT22;9572;52.378;13.404;2023-04-15T10:21:04;10.30;99.90
18880;DHT22;9572;52.378;13.404;2023-04-15T10:23:32;10.30;99.90
18880;DHT22;9572;52.378;13.404;2023-04-15T10:26:03;10.30;99.90
18880;DHT22;9572;52.378;13.404;2023-04-15T10:28:30;10.30;99.90
18880;DHT22;9572;52.378;13.404;2023-04-15T10:30:57;10.40;99.90
18880;DHT22;9572;52.378;13.404;2023-04-15T10:33:25;10.40;99.90
18880;DHT22;9572;52.378;13.404;2023-04-15T10:35:54;10.50;99.90
18880;DHT22;9572;52.378;13.404;2023-04-15T10:38:35;10.40;99.90
18880;DHT22;9572;52.378;13.404;2023-04-15T10:41:14;10.40;99.90
18880;DHT22;9572;52.378;13.404;2023-04-15T10:43:46;10.40;99.90
18880;DHT22;9572;52.378;13.404;2023-04-15T10:46:17;10.40;99.90
18880;DHT22;9572;52.378;13.404;2023-04-15T10:48:47;10.40;99.90
18880;DHT22;9572;52.378;13.404;2023-04-15T10:51:14;10.30;99.90
18880;DHT22;9572;52.378;13.404;2023-04-15T10:53:41;10.20;99.90
18880;DHT22;9572;52.378;13.404;2023-04-15T10:56:09;10.30;99.90
18880;DHT22;9572;52.378;13.404;2023-04-15T10:58:42;10.40;99.90
18880;DHT22;9572;52.378;13.404;2023-04-15T11:01:08;10.40;99.90
18880;DHT22;9572;52.378;13.404;2023-04-15T11:03:37;10.40;99.90
18880;DHT22;9572;52.378;13.404;2023-04-15T11:06:04;10.30;99.90
18880;DHT22;9572;52.378;13.404;2023-04-15T11:08:54;10.40;99.90
18880;DHT22;9572;52.378;13.404;2023-04-15T11:11:25;10.40;99.90
18880;DHT22;9572;52.378;13.404;2023-04-15T11:14:15;10.40;99.90
18880;DHT22;9572;52.378;13.404;2023-04-15T11:16:42;10.40;99.90
18880;DHT22;9572;52.378;13.404;2023-04-15T11:19:10;10.40;99.90
18880;DHT22;9572;52.378;13.404;2023-04-15T11:21:36;10.40;99.90
18880;DHT22;9572;52.378;13.404;2023-04-15T11:24:04;10.30;99.90
18880;DHT22;9572;52.378;13.404;2023-04-15T11:26:31;10.40;99.90
18880;DHT22;9572;52.378;13.404;2023-04-15T11:28:57;10.40;99.90
18880;DHT22;9572;52.378;13.404;2023-04-15T11:31:27;10.40;99.90
18880;DHT22;9572;52.378;13.404;2023-04-15T11:33:55;10.40;99.90
18880;DHT22;9572;52.378;13.404;2023-04-15T11:36:23;10.40;99.90
18880;DHT22;9572;52.378;13.404;2023-04-15T11:38:52;10.40;99.90
18880;DHT22;9572;52.378;13.404;2023-04-15T11:41:19;10.40;99.90
18880;DHT22;9572;52.378;13.404;2023-04-15T11:43:47;10.50;99.90
18880;DHT22;9572;52.378;13.404;2023-04-15T11:46:14;10.40;99.90
18880;DHT22;9572;52.378;13.404;2023-04-15T11:48:43;10.40;99.90
18880;DHT22;9572;52.378;13.404;2023-04-15T11:51:11;10.40;99.90
18880;DHT22;9572;52.378;13.404;2023-04-15T11:53:41;10.40;99.90
18880;DHT22;9572;52.378;13.404;2023-04-15T11:56:10;10.50;99.90
18880;DHT22;9572;52.378;13.404;2023-04-15T11:58:37;10.50;99.90
18880;DHT22;9572;52.378;13.404;2023-04-15T12:01:05;10.50;99.90
18880;DHT22;9572;52.378;13.404;2023-04-15T12:03:37;10.50;99.90
18880;DHT22;9572;52.378;13.404;2023-04-15T12:06:14;10.50;99.90
18880;DHT22;9572;52.378;13.404;2023-04-15T12:09:06;10.50;99.90
18880;DHT22;9572;52.378;13.404;2023-04-15T12:11:36;10.50;99.90
18880;DHT22;9572;52.378;13.404;2023-04-15T12:14:08;10.50;99.90
18880;DHT22;9572;52.378;13.404;2023-04-15T12:16:37;10.60;99.90
18880;DHT22;9572;52.378;13.404;2023-04-15T12:19:08;10.70;99.90
18880;DHT22;9572;52.378;13.404;2023-04-15T12:21:38;10.70;99.90
18880;DHT22;9572;52.378;13.404;2023-04-15T12:24:07;10.70;99.90
18880;DHT22;9572;52.378;13.404;2023-04-15T12:26:36;10.70;99.90
18880;DHT22;9572;52.378;13.404;2023-04-15T12:29:04;10.70;99.90
18880;DHT22;9572;52.378;13.404;2023-04-15T12:31:32;10.70;99.90
18880;DHT22;9572;52.378;13.404;2023-04-15T12:33:59;10.70;99.90
18880;DHT22;9572;52.378;13.404;2023-04-15T12:36:27;10.70;99.90
18880;DHT22;9572;52.378;13.404;2023-04-15T12:38:56;10.70;99.90
18880;DHT22;9572;52.378;13.404;2023-04-15T12:41:23;10.70;99.90
18880;DHT22;9572;52.378;13.404;2023-04-15T12:43:50;10.70;99.90
18880;DHT22;9572;52.378;13.404;2023-04-15T12:46:17;10.70;99.90
18880;DHT22;9572;52.378;13.404;2023-04-15T12:48:44;10.70;99.90
18880;DHT22;9572;52.378;13.404;2023-04-15T12:51:12;10.70;99.90
18880;DHT22;9572;52.378;13.404;2023-04-15T12:53:39;10.80;99.90
18880;DHT22;9572;52.378;13.404;2023-04-15T12:56:07;10.80;99.90
18880;DHT22;9572;52.378;13.404;2023-04-15T12:58:34;10.80;99.90
18880;DHT22;9572;52.378;13.404;2023-04-15T13:01:01;10.80;99.90
18880;DHT22;9572;52.378;13.404;2023-04-15T13:03:28;10.80;99.90
18880;DHT22;9572;52.378;13.404;2023-04-15T13:05:55;10.90;99.90
18880;DHT22;9572;52.378;13.404;2023-04-15T13:08:22;10.90;99.90
18880;DHT22;9572;52.378;13.404;2023-04-15T13:10:49;10.90;99.90
18880;DHT22;9572;52.378;13.404;2023-04-15T13:13:18;10.90;99.90
18880;DHT22;9572;52.378;13.404;2023-04-15T13:15:45;10.90;99.90
18880;DHT22;9572;52.378;13.404;2023-04-15T13:18:11;10.80;99.90
18880;DHT22;9572;52.378;13.404;2023-04-15T13:20:38;10.90;99.90
18880;DHT22;9572;52.378;13.404;2023-04-15T13:23:05;10.90;99.90
18880;DHT22;9572;52.378;13.404;2023-04-15T13:25:32;10.90;99.90
18880;DHT22;9572;52.378;13.404;2023-04-15T13:27:59;11.00;99.90
18880;DHT22;9572;52.378;13.404;2023-04-15T13:30:28;10.90;99.90
18880;DHT22;9572;52.378;13.404;2023-04-15T13:32:55;11.00;99.90
18880;DHT22;9572;52.378;13.404;2023-04-15T13:35:22;11.00;99.90
18880;DHT22;9572;52.378;13.404;2023-04-15T13:37:49;11.00;99.90
18880;DHT22;9572;52.378;13.404;2023-04-15T13:40:16;10.90;99.90
18880;DHT22;9572;52.378;13.404;2023-04-15T13:42:43;11.00;99.90
18880;DHT22;9572;52.378;13.404;2023-04-15T13:45:10;11.00;99.90
18880;DHT22;9572;52.378;13.404;2023-04-15T13:47:39;11.00;99.90
18880;DHT22;9572;52.378;13.404;2023-04-15T13:50:06;11.00;99.90
18880;DHT22;9572;52.378;13.404;2023-04-15T13:52:33;11.10;99.90
18880;DHT22;9572;52.378;13.404;2023-04-15T13:55:02;11.10;99.90
18880;DHT22;9572;52.378;13.404;2023-04-15T13:57:29;11.00;99.90
18880;DHT22;9572;52.378;13.404;2023-04-15T13:59:57;11.00;99.90
18880;DHT22;9572;52.378;13.404;2023-04-15T14:02:24;11.00;99.90
18880;DHT22;9572;52.378;13.404;2023-04-15T14:04:52;11.10;99.90
18880;DHT22;9572;52.378;13.404;2023-04-15T14:07:19;11.00;99.90
18880;DHT22;9572;52.378;13.404;2023-04-15T14:09:46;11.00;99.90
18880;DHT22;9572;52.378;13.404;2023-04-15T14:12:13;11.00;99.90
18880;DHT22;9572;52.378;13.404;2023-04-15T14:14:40;11.00;99.90
18880;DHT22;9572;52.378;13.404;2023-04-15T14:17:07;11.00;99.90
18880;DHT22;9572;52.378;13.404;2023-04-15T14:19:34;11.10;99.90
18880;DHT22;9572;52.378;13.404;2023-04-15T14:22:02;11.10;99.90
18880;DHT22;9572;52.378;13.404;2023-04-15T14:24:29;11.20;99.90
18880;DHT22;9572;52.378;13.404;2023-04-15T14:26:56;11.30;99.90
18880;DHT22;9572;52.378;13.404;2023-04-15T14:29:23;11.20;99.90
18880;DHT22;9572;52.378;13.404;2023-04-15T14:31:50;11.20;99.90
18880;DHT22;9572;52.378;13.404;2023-04-15T14:34:17;11.20;99.90
18880;DHT22;9572;52.378;13.404;2023-04-15T14:36:46;11.20;99.90
18880;DHT22;9572;52.378;13.404;2023-04-15T14:39:14;11.10;99.90
18880;DHT22;9572;52.378;13.404;2023-04-15T14:41:41;11.10;99.90
18880;DHT22;9572;52.378;13.404;2023-04-15T14:44:08;11.10;99.90
18880;DHT22;9572;52.378;13.404;2023-04-15T14:46:36;11.10;99.90
18880;DHT22;9572;52.378;13.404;2023-04-15T14:49:03;11.20;99.90
18880;DHT22;9572;52.378;13.404;2023-04-15T14:51:30;11.20;99.90
18880;DHT22;9572;52.378;13.404;2023-04-15T14:53:57;11.10;99.90
18880;DHT22;9572;52.378;13.404;2023-04-15T14:56:25;11.10;99.90
18880;DHT22;9572;52.378;13.404;2023-04-15T14:58:52;11.20;99.90
18880;DHT22;9572;52.378;13.404;2023-04-15T15:01:19;11.20;99.90
18880;DHT22;9572;52.378;13.404;2023-04-15T15:03:47;11.10;99.90
18880;DHT22;9572;52.378;13.404;2023-04-15T15:06:14;11.10;99.90
18880;DHT22;9572;52.378;13.404;2023-04-15T15:08:41;11.00;99.90
18880;DHT22;9572;52.378;13.404;2023-04-15T15:11:08;11.00;99.90
18880;DHT22;9572;52.378;13.404;2023-04-15T15:13:36;11.00;99.90
18880;DHT22;9572;52.378;13.404;2023-04-15T15:16:03;11.00;99.90
18880;DHT22;9572;52.378;13.404;2023-04-15T15:18:30;11.00;99.90
18880;DHT22;9572;52.378;13.404;2023-04-15T15:20:57;11.00;99.90
18880;DHT22;9572;52.378;13.404;2023-04-15T15:23:24;11.10;99.90
18880;DHT22;9572;52.378;13.404;2023-04-15T15:25:51;11.10;99.90
18880;DHT22;9572;52.378;13.404;2023-04-15T15:28:18;11.10;99.90
18880;DHT22;9572;52.378;13.404;2023-04-15T15:30:47;11.10;99.90
18880;DHT22;9572;52.378;13.404;2023-04-15T15:33:14;11.00;99.90
18880;DHT22;9572;52.378;13.404;2023-04-15T15:35:41;10.90;99.90
18880;DHT22;9572;52.378;13.404;2023-04-15T15:38:10;11.00;99.90
18880;DHT22;9572;52.378;13.404;2023-04-15T15:40:37;11.00;99.90
18880;DHT22;9572;52.378;13.404;2023-04-15T15:43:04;11.10;99.90
18880;DHT22;9572;52.378;13.404;2023-04-15T15:45:31;11.10;99.90
18880;DHT22;9572;52.378;13.404;2023-04-15T15:48:00;11.00;99.90
18880;DHT22;9572;52.378;13.404;2023-04-15T15:50:27;11.00;99.90
18880;DHT22;9572;52.378;13.404;2023-04-15T15:52:54;11.00;99.90
18880;DHT22;9572;52.378;13.404;2023-04-15T15:55:23;11.00;99.90
18880;DHT22;9572;52.378;13.404;2023-04-15T15:57:51;10.90;99.90
18880;DHT22;9572;52.378;13.404;2023-04-15T16:00:18;10.90;99.90
18880;DHT22;9572;52.378;13.404;2023-04-15T16:02:45;10.90;99.90
18880;DHT22;9572;52.378;13.404;2023-04-15T16:05:14;10.90;99.90
18880;DHT22;9572;52.378;13.404;2023-04-15T16:07:41;10.90;99.90
18880;DHT22;9572;52.378;13.404;2023-04-15T16:10:08;10.90;99.90
18880;DHT22;9572;52.378;13.404;2023-04-15T16:12:35;10.80;99.90
18880;DHT22;9572;52.378;13.404;2023-04-15T16:15:02;10.80;99.90
18880;DHT22;9572;52.378;13.404;2023-04-15T16:17:29;10.80;99.90
18880;DHT22;9572;52.378;13.404;2023-04-15T16:19:56;10.80;99.90